createdAt,value
2022-10-16T00:02:18.833Z,10.30
2022-10-16T00:04:45.166Z,7.97
2022-10-16T00:07:11.574Z,8.73
2022-10-16T00:09:37.912Z,5.97
2022-10-16T00:12:04.400Z,8.60
2022-10-16T00:14:31.163Z,6.65
2022-10-16T00:16:57.453Z,6.32
2022-10-16T00:19:23.981Z,6.30
2022-10-16T00:21:50.307Z,6.63
2022-10-16T00:24:16.671Z,6.55
2022-10-16T00:26:43.007Z,6.75
2022-10-16T00:29:10.066Z,8.13
2022-10-16T00:31:36.466Z,7.72
2022-10-16T00:34:03.465Z,7.07
2022-10-16T00:36:29.938Z,8.77
2022-10-16T00:41:33.539Z,6.18
2022-10-16T00:44:03.682Z,7.03
2022-10-16T00:46:40.059Z,9.05
2022-10-16T00:49:11.037Z,8.25
2022-10-16T00:51:42.045Z,8.15
2022-10-16T00:54:16.224Z,8.20
2022-10-16T00:56:44.512Z,8.30
2022-10-16T00:59:17.326Z,8.35
2022-10-16T01:01:43.631Z,8.18
2022-10-16T01:04:10.042Z,6.50
2022-10-16T01:07:11.521Z,6.20
2022-10-16T01:09:55.892Z,8.25
2022-10-16T01:13:06.549Z,6.28
2022-10-16T01:15:45.496Z,7.00
2022-10-16T01:18:26.136Z,7.40
2022-10-16T01:21:00.003Z,9.60
2022-10-16T01:23:26.272Z,9.40
2022-10-16T01:25:58.829Z,7.40
2022-10-16T01:28:34.675Z,8.95
2022-10-16T01:31:03.322Z,8.70
2022-10-16T01:33:37.926Z,7.20
2022-10-16T01:36:11.505Z,6.53
2022-10-16T01:38:40.007Z,5.70
2022-10-16T01:41:15.262Z,8.27
2022-10-16T01:43:47.492Z,7.30
2022-10-16T01:46:16.848Z,6.88
2022-10-16T01:48:43.144Z,8.18
2022-10-16T01:51:15.825Z,6.90
2022-10-16T01:53:47.327Z,8.95
2022-10-16T01:56:16.406Z,6.75
2022-10-16T01:58:50.656Z,6.95
2022-10-16T02:01:21.215Z,7.20
2022-10-16T02:03:51.031Z,8.43
2022-10-16T02:06:17.387Z,5.78
2022-10-16T02:08:43.925Z,8.35
2022-10-16T02:11:11.205Z,10.20
2022-10-16T02:13:44.180Z,8.05
2022-10-16T02:16:12.148Z,7.15
2022-10-16T02:18:39.308Z,7.82
2022-10-16T02:21:26.744Z,6.50
2022-10-16T02:24:02.238Z,7.13
2022-10-16T02:26:36.375Z,8.65
2022-10-16T02:29:07.611Z,7.63
2022-10-16T02:31:39.282Z,8.07
2022-10-16T02:34:07.454Z,9.48
2022-10-16T02:36:36.470Z,7.53
2022-10-16T02:39:05.117Z,7.03
2022-10-16T02:41:31.723Z,9.18
2022-10-16T02:43:58.111Z,8.00
2022-10-16T02:46:24.616Z,8.07
2022-10-16T02:48:50.918Z,7.75
2022-10-16T02:51:17.225Z,7.13
2022-10-16T02:53:43.548Z,7.47
2022-10-16T02:56:10.093Z,7.97
2022-10-16T02:58:36.491Z,7.03
2022-10-16T03:01:02.937Z,6.85
2022-10-16T03:03:29.369Z,7.95
2022-10-16T03:05:55.725Z,7.38
2022-10-16T03:08:22.042Z,10.85
2022-10-16T03:10:48.393Z,7.63
2022-10-16T03:13:14.697Z,11.90
2022-10-16T03:15:41.018Z,8.48
2022-10-16T03:18:07.644Z,6.93
2022-10-16T03:20:34.418Z,7.25
2022-10-16T03:23:00.736Z,6.72
2022-10-16T03:25:27.071Z,7.45
2022-10-16T03:27:53.372Z,7.07
2022-10-16T03:30:19.686Z,6.78
2022-10-16T03:32:46.042Z,6.78
2022-10-16T03:35:12.430Z,6.38
2022-10-16T03:37:38.938Z,6.97
2022-10-16T03:40:05.963Z,7.45
2022-10-16T03:42:32.294Z,8.77
2022-10-16T03:44:58.632Z,7.88
2022-10-16T03:47:25.303Z,5.63
2022-10-16T03:49:51.982Z,7.32
2022-10-16T03:54:45.525Z,7.00
2022-10-16T03:57:12.148Z,6.97
2022-10-16T03:59:38.553Z,7.15
2022-10-16T04:02:04.873Z,6.82
2022-10-16T04:04:31.231Z,6.43
2022-10-16T04:06:57.552Z,6.57
2022-10-16T04:09:23.866Z,7.55
2022-10-16T04:11:50.233Z,6.70
2022-10-16T04:14:16.518Z,7.90
2022-10-16T04:16:42.844Z,8.50
2022-10-16T04:19:10.487Z,5.70
2022-10-16T04:21:37.307Z,6.78
2022-10-16T04:24:04.026Z,5.15
2022-10-16T04:26:30.937Z,6.10
2022-10-16T04:28:57.379Z,5.80
2022-10-16T04:31:23.740Z,7.80
2022-10-16T04:33:50.141Z,7.05
2022-10-16T04:36:16.508Z,7.63
2022-10-16T04:38:42.823Z,7.35
2022-10-16T04:41:09.382Z,6.90
2022-10-16T04:43:36.322Z,7.25
2022-10-16T04:46:02.818Z,6.35
2022-10-16T04:48:29.154Z,6.22
2022-10-16T04:50:55.488Z,5.88
2022-10-16T04:53:22.016Z,7.85
2022-10-16T04:55:48.353Z,5.88
2022-10-16T04:58:14.708Z,8.18
2022-10-16T05:00:41.016Z,7.97
2022-10-16T05:03:07.359Z,6.93
2022-10-16T05:05:34.695Z,6.18
2022-10-16T05:08:01.051Z,4.38
2022-10-16T05:10:27.416Z,6.53
2022-10-16T05:12:53.741Z,7.75
2022-10-16T05:15:20.073Z,6.35
2022-10-16T05:17:46.460Z,6.05
2022-10-16T05:20:13.185Z,5.63
2022-10-16T05:22:39.510Z,6.75
2022-10-16T05:25:06.398Z,6.38
2022-10-16T05:27:32.708Z,6.65
2022-10-16T05:29:59.053Z,5.35
2022-10-16T05:32:25.414Z,5.20
2022-10-16T05:34:51.784Z,6.03
2022-10-16T05:37:18.159Z,6.22
2022-10-16T05:39:44.552Z,4.57
2022-10-16T05:42:10.881Z,6.53
2022-10-16T05:44:37.221Z,6.40
2022-10-16T05:47:03.565Z,8.32
2022-10-16T05:49:29.893Z,5.45
2022-10-16T05:51:56.199Z,5.78
2022-10-16T05:54:22.546Z,6.22
2022-10-16T05:56:48.857Z,8.60
2022-10-16T05:59:15.241Z,7.22
2022-10-16T06:01:41.559Z,6.75
2022-10-16T06:04:09.289Z,8.32
2022-10-16T06:06:35.828Z,7.28
2022-10-16T06:09:02.138Z,8.63
2022-10-16T06:11:30.775Z,6.57
2022-10-16T06:13:59.138Z,6.22
2022-10-16T06:16:26.554Z,7.53
2022-10-16T06:18:54.442Z,7.68
2022-10-16T06:21:23.979Z,7.40
2022-10-16T06:23:50.289Z,7.15
2022-10-16T06:26:20.042Z,6.70
2022-10-16T06:28:47.101Z,7.63
2022-10-16T06:31:14.591Z,7.25
2022-10-16T06:33:41.343Z,6.43
2022-10-16T06:36:11.552Z,9.13
2022-10-16T06:38:38.673Z,9.10
2022-10-16T06:41:06.381Z,6.85
2022-10-16T06:43:33.376Z,8.02
2022-10-16T06:46:00.852Z,7.47
2022-10-16T06:48:28.290Z,6.45
2022-10-16T06:51:02.793Z,7.10
2022-10-16T06:53:39.504Z,6.45
2022-10-16T06:56:10.464Z,7.40
2022-10-16T06:58:37.761Z,9.77
2022-10-16T07:01:05.314Z,6.32
2022-10-16T07:03:31.909Z,9.68
2022-10-16T07:05:58.297Z,6.25
2022-10-16T07:08:24.615Z,6.63
2022-10-16T07:10:59.317Z,8.18
2022-10-16T07:13:25.648Z,6.32
2022-10-16T07:15:51.958Z,7.10
2022-10-16T07:18:18.351Z,6.15
2022-10-16T07:20:44.725Z,5.57
2022-10-16T07:23:11.045Z,7.18
2022-10-16T07:25:37.358Z,7.07
2022-10-16T07:28:03.894Z,8.75
2022-10-16T07:30:30.205Z,5.95
2022-10-16T07:32:56.530Z,6.63
2022-10-16T07:35:22.836Z,6.45
2022-10-16T07:37:49.151Z,6.22
2022-10-16T07:40:15.485Z,6.63
2022-10-16T07:42:41.791Z,6.03
2022-10-16T07:45:08.362Z,5.25
2022-10-16T07:47:34.691Z,6.78
2022-10-16T07:50:00.991Z,5.22
2022-10-16T07:52:27.329Z,6.10
2022-10-16T07:57:25.249Z,5.95
2022-10-16T07:59:51.731Z,5.70
2022-10-16T08:02:18.090Z,5.88
2022-10-16T08:04:44.410Z,6.80
2022-10-16T08:07:10.723Z,8.60
2022-10-16T08:09:37.058Z,6.03
2022-10-16T08:12:03.481Z,7.97
2022-10-16T08:14:29.806Z,6.55
2022-10-16T08:16:56.141Z,6.57
2022-10-16T08:19:22.489Z,6.05
2022-10-16T08:21:48.878Z,8.00
2022-10-16T08:24:15.199Z,6.63
2022-10-16T08:26:41.509Z,4.55
2022-10-16T08:29:07.854Z,7.00
2022-10-16T08:31:34.238Z,6.10
2022-10-16T08:34:01.067Z,6.72
2022-10-16T08:36:27.373Z,5.30
2022-10-16T08:38:53.662Z,5.68
2022-10-16T08:41:37.986Z,6.75
2022-10-16T08:44:36.204Z,4.57
2022-10-16T08:47:23.824Z,6.40
2022-10-16T08:50:00.160Z,4.93
2022-10-16T08:52:33.630Z,6.85
2022-10-16T08:55:00.030Z,7.50
2022-10-16T08:57:27.244Z,6.20
2022-10-16T08:59:54.608Z,6.10
2022-10-16T09:02:20.863Z,5.85
2022-10-16T09:05:02.254Z,6.57
2022-10-16T09:08:09.140Z,6.90
2022-10-16T09:10:57.122Z,7.07
2022-10-16T09:13:36.388Z,7.40
2022-10-16T09:16:15.767Z,5.68
2022-10-16T09:18:52.744Z,8.05
2022-10-16T09:21:30.545Z,7.03
2022-10-16T09:24:16.307Z,7.05
2022-10-16T09:26:43.765Z,8.20
2022-10-16T09:29:13.580Z,6.88
2022-10-16T09:31:40.210Z,8.55
2022-10-16T09:34:10.222Z,6.63
2022-10-16T09:36:42.655Z,7.45
2022-10-16T09:39:10.983Z,6.95
2022-10-16T09:41:40.393Z,6.25
2022-10-16T09:44:21.653Z,6.60
2022-10-16T09:46:47.994Z,6.80
2022-10-16T09:49:23.215Z,4.20
2022-10-16T09:51:49.786Z,6.97
2022-10-16T09:54:19.249Z,6.05
2022-10-16T09:56:45.881Z,5.65
2022-10-16T09:59:14.633Z,6.50
2022-10-16T10:01:48.206Z,4.95
2022-10-16T10:04:15.530Z,6.22
2022-10-16T10:06:48.981Z,5.95
2022-10-16T10:09:22.896Z,8.20
2022-10-16T10:11:57.853Z,6.00
2022-10-16T10:14:27.703Z,7.82
2022-10-16T10:17:05.972Z,6.05
2022-10-16T10:19:53.625Z,10.30
2022-10-16T10:22:25.546Z,8.00
2022-10-16T10:25:14.015Z,10.07
2022-10-16T10:28:02.098Z,8.85
2022-10-16T10:30:41.852Z,10.05
2022-10-16T10:33:13.052Z,10.65
2022-10-16T10:36:05.982Z,10.02
2022-10-16T10:38:54.058Z,8.25
2022-10-16T10:41:40.731Z,8.68
2022-10-16T10:44:26.025Z,6.35
2022-10-16T10:46:56.558Z,5.28
2022-10-16T10:49:38.093Z,7.95
2022-10-16T10:52:29.496Z,8.30
2022-10-16T10:55:11.311Z,8.32
2022-10-16T10:57:58.594Z,11.10
2022-10-16T11:00:49.333Z,8.57
2022-10-16T11:03:24.721Z,10.50
2022-10-16T11:06:05.453Z,5.50
2022-10-16T11:08:36.735Z,8.07
2022-10-16T11:11:07.817Z,9.02
2022-10-16T11:13:55.570Z,9.00
2022-10-16T11:16:28.314Z,10.95
2022-10-16T11:19:19.747Z,9.43
2022-10-16T11:21:56.360Z,9.73
2022-10-16T11:24:46.766Z,11.45
2022-10-16T11:27:20.844Z,8.93
2022-10-16T11:29:58.136Z,11.27
2022-10-16T11:32:40.198Z,7.75
2022-10-16T11:35:18.174Z,7.05
2022-10-16T11:37:49.237Z,8.70
2022-10-16T11:40:31.953Z,7.22
2022-10-16T11:43:31.856Z,7.43
2022-10-16T11:46:05.326Z,6.78
2022-10-16T11:48:44.291Z,5.53
2022-10-16T11:51:37.175Z,9.45
2022-10-16T11:54:09.581Z,8.15
2022-10-16T11:56:40.305Z,8.13
2022-10-16T11:59:26.926Z,7.30
2022-10-16T12:02:16.163Z,8.10
2022-10-16T12:04:48.055Z,8.52
2022-10-16T12:09:47.270Z,7.72
2022-10-16T12:12:40.626Z,9.57
2022-10-16T12:15:35.172Z,6.40
2022-10-16T12:17:53.874Z,7.63
2022-10-16T12:20:27.553Z,10.02
2022-10-16T12:23:04.485Z,9.32
2022-10-16T12:25:40.550Z,7.78
2022-10-16T12:28:15.690Z,8.15
2022-10-16T12:30:43.457Z,6.38
2022-10-16T12:33:31.381Z,4.82
2022-10-16T12:36:00.574Z,7.20
2022-10-16T12:38:53.639Z,6.75
2022-10-16T12:41:34.562Z,6.53
2022-10-16T12:44:01.346Z,5.30
2022-10-16T12:46:30.358Z,6.35
2022-10-16T12:49:15.134Z,7.30
2022-10-16T12:51:43.021Z,4.60
2022-10-16T12:54:38.094Z,6.93
2022-10-16T12:57:21.122Z,10.30
2022-10-16T13:00:10.896Z,6.57
2022-10-16T13:02:50.088Z,7.18
2022-10-16T13:05:40.758Z,7.10
2022-10-16T13:08:44.304Z,7.07
2022-10-16T13:11:22.833Z,6.80
2022-10-16T13:14:07.647Z,6.38
2022-10-16T13:17:02.563Z,5.88
2022-10-16T13:20:02.627Z,7.05
2022-10-16T13:22:47.902Z,6.45
2022-10-16T13:25:43.523Z,6.45
2022-10-16T13:28:13.137Z,7.78
2022-10-16T13:30:52.959Z,5.63
2022-10-16T13:33:34.153Z,8.38
2022-10-16T13:36:01.575Z,8.30
2022-10-16T13:38:30.739Z,7.82
2022-10-16T13:41:01.670Z,5.80
2022-10-16T13:43:40.763Z,6.40
2022-10-16T13:46:21.996Z,7.97
2022-10-16T13:49:06.508Z,12.35
2022-10-16T13:51:34.190Z,6.57
2022-10-16T13:54:00.739Z,9.38
2022-10-16T13:56:30.070Z,5.90
2022-10-16T13:59:04.965Z,7.78
2022-10-16T14:01:45.250Z,5.10
2022-10-16T14:04:14.384Z,8.05
2022-10-16T14:06:46.433Z,10.07
2022-10-16T14:09:21.540Z,7.70
2022-10-16T14:11:51.564Z,8.20
2022-10-16T14:14:19.694Z,7.15
2022-10-16T14:16:46.317Z,7.72
2022-10-16T14:19:31.869Z,9.00
2022-10-16T14:22:00.745Z,6.55
2022-10-16T14:24:31.808Z,7.00
2022-10-16T14:26:58.950Z,9.05
2022-10-16T14:29:27.311Z,5.82
2022-10-16T14:32:07.262Z,9.70
2022-10-16T14:34:35.927Z,7.90
2022-10-16T14:37:11.996Z,8.25
2022-10-16T14:39:38.402Z,7.75
2022-10-16T14:42:04.726Z,8.45
2022-10-16T14:44:33.933Z,9.18
2022-10-16T14:47:09.480Z,8.55
2022-10-16T14:49:35.841Z,8.95
2022-10-16T14:52:02.578Z,7.80
2022-10-16T14:54:28.904Z,13.43
2022-10-16T14:56:58.063Z,7.45
2022-10-16T14:59:39.641Z,8.38
2022-10-16T15:02:24.294Z,11.98
2022-10-16T15:04:50.775Z,9.32
2022-10-16T15:07:17.231Z,7.60
2022-10-16T15:09:48.124Z,6.90
2022-10-16T15:12:16.060Z,6.40
2022-10-16T15:14:42.366Z,9.48
2022-10-16T15:17:12.288Z,7.13
2022-10-16T15:19:39.051Z,8.57
2022-10-16T15:22:05.395Z,5.22
2022-10-16T15:24:31.751Z,8.02
2022-10-16T15:26:58.069Z,7.55
2022-10-16T15:29:24.367Z,7.43
2022-10-16T15:31:50.706Z,9.10
2022-10-16T15:34:17.043Z,9.90
2022-10-16T15:36:43.365Z,7.93
2022-10-16T15:39:14.951Z,6.07
2022-10-16T15:44:12.824Z,7.53
2022-10-16T15:46:39.151Z,6.57
2022-10-16T15:49:05.481Z,8.55
2022-10-16T15:51:31.907Z,9.20
2022-10-16T15:53:58.266Z,7.78
2022-10-16T15:56:24.657Z,10.50
2022-10-16T15:58:50.986Z,9.13
2022-10-16T16:01:22.126Z,12.30
2022-10-16T16:03:48.489Z,10.35
2022-10-16T16:06:15.075Z,6.97
2022-10-16T16:08:41.806Z,8.38
2022-10-16T16:11:12.863Z,8.52
2022-10-16T16:13:39.780Z,8.43
2022-10-16T16:16:08.493Z,8.95
2022-10-16T16:18:36.985Z,9.93
2022-10-16T16:21:04.323Z,12.60
2022-10-16T16:23:30.981Z,11.25
2022-10-16T16:26:05.891Z,9.07
2022-10-16T16:28:32.522Z,9.38
2022-10-16T16:31:01.763Z,8.98
2022-10-16T16:33:28.090Z,9.02
2022-10-16T16:36:02.115Z,9.88
2022-10-16T16:38:28.987Z,11.18
2022-10-16T16:40:56.492Z,7.68
2022-10-16T16:43:28.760Z,5.63
2022-10-16T16:45:55.647Z,13.13
2022-10-16T16:48:22.683Z,12.70
2022-10-16T16:50:49.017Z,8.02
2022-10-16T16:53:15.346Z,10.77
2022-10-16T16:55:41.710Z,9.45
2022-10-16T16:58:08.184Z,12.90
2022-10-16T17:00:34.496Z,11.07
2022-10-16T17:03:00.890Z,10.10
2022-10-16T17:05:27.314Z,8.88
2022-10-16T17:07:53.686Z,9.05
2022-10-16T17:10:20.008Z,11.77
2022-10-16T17:12:46.377Z,14.50
2022-10-16T17:15:12.774Z,6.65
2022-10-16T17:17:39.137Z,10.77
2022-10-16T17:20:05.902Z,8.40
2022-10-16T17:22:32.216Z,9.07
2022-10-16T17:24:58.530Z,10.05
2022-10-16T17:27:24.861Z,10.18
2022-10-16T17:29:52.062Z,9.52
2022-10-16T17:32:18.565Z,8.63
2022-10-16T17:34:44.881Z,8.73
2022-10-16T17:37:14.373Z,8.30
2022-10-16T17:39:43.572Z,6.82
2022-10-16T17:42:09.898Z,10.57
2022-10-16T17:44:36.278Z,9.35
2022-10-16T17:47:02.591Z,5.85
2022-10-16T17:49:28.930Z,5.43
2022-10-16T17:51:55.263Z,11.90
2022-10-16T17:54:21.617Z,9.18
2022-10-16T17:56:48.030Z,9.02
2022-10-16T17:59:14.863Z,9.32
2022-10-16T18:01:41.775Z,9.13
2022-10-16T18:04:11.031Z,10.93
2022-10-16T18:06:37.540Z,13.02
2022-10-16T18:09:04.701Z,10.07
2022-10-16T18:11:31.237Z,10.30
2022-10-16T18:13:59.502Z,9.20
2022-10-16T18:16:27.917Z,12.80
2022-10-16T18:18:55.286Z,9.55
2022-10-16T18:21:21.620Z,11.43
2022-10-16T18:23:51.073Z,8.57
2022-10-16T18:26:19.721Z,8.35
2022-10-16T18:28:46.085Z,10.73
2022-10-16T18:31:15.353Z,9.68
2022-10-16T18:33:43.114Z,11.07
2022-10-16T18:36:11.366Z,10.77
2022-10-16T18:38:38.046Z,9.82
2022-10-16T18:41:05.026Z,12.45
2022-10-16T18:43:36.074Z,10.82
2022-10-16T18:46:05.603Z,8.65
2022-10-16T18:48:32.359Z,9.27
2022-10-16T18:51:15.043Z,11.30
2022-10-16T18:53:42.700Z,7.43
2022-10-16T18:56:10.145Z,8.77
2022-10-16T18:58:36.922Z,7.68
2022-10-16T19:01:07.837Z,8.27
2022-10-16T19:03:34.599Z,8.23
2022-10-16T19:06:03.098Z,7.35
2022-10-16T19:08:29.995Z,9.27
2022-10-16T19:10:56.294Z,13.90
2022-10-16T19:13:22.607Z,11.05
2022-10-16T19:15:58.048Z,9.07
2022-10-16T19:18:27.023Z,11.50
2022-10-16T19:20:54.136Z,12.63
2022-10-16T19:23:20.916Z,11.38
2022-10-16T19:25:47.291Z,12.18
2022-10-16T19:28:13.593Z,9.93
2022-10-16T19:30:41.759Z,10.18
2022-10-16T19:33:08.635Z,10.95
2022-10-16T19:35:35.247Z,12.18
2022-10-16T19:38:01.626Z,8.98
2022-10-16T19:40:28.404Z,9.35
2022-10-16T19:42:54.711Z,13.90
2022-10-16T19:45:21.642Z,8.00
2022-10-16T19:47:48.049Z,12.30
2022-10-16T19:50:14.402Z,13.55
2022-10-16T19:52:43.518Z,8.73
2022-10-16T19:55:10.181Z,9.40
2022-10-16T19:57:37.141Z,14.23
2022-10-16T20:00:06.415Z,10.07
2022-10-16T20:02:33.030Z,14.23
2022-10-16T20:04:59.361Z,9.40
2022-10-16T20:07:28.078Z,9.65
2022-10-16T20:09:56.527Z,12.45
2022-10-16T20:12:22.857Z,9.63
2022-10-16T20:14:49.194Z,11.77
2022-10-16T20:17:15.575Z,8.70
2022-10-16T20:19:41.889Z,13.13
2022-10-16T20:22:08.172Z,12.82
2022-10-16T20:24:34.535Z,12.73
2022-10-16T20:27:00.848Z,11.48
2022-10-16T20:29:27.153Z,11.90
2022-10-16T20:31:53.487Z,10.70
2022-10-16T20:34:19.787Z,14.00
2022-10-16T20:36:46.081Z,17.30
2022-10-16T20:39:12.573Z,12.18
2022-10-16T20:41:39.103Z,11.85
2022-10-16T20:44:05.876Z,12.63
2022-10-16T20:46:32.602Z,16.10
2022-10-16T20:49:06.186Z,10.57
2022-10-16T20:51:38.222Z,10.98
2022-10-16T20:54:06.544Z,12.63
2022-10-16T20:56:36.248Z,9.20
2022-10-16T20:59:03.353Z,12.13
2022-10-16T21:01:29.989Z,12.55
2022-10-16T21:04:01.379Z,11.75
2022-10-16T21:06:28.222Z,11.77
2022-10-16T21:08:54.678Z,12.48
2022-10-16T21:11:27.712Z,13.02
2022-10-16T21:13:56.246Z,13.13
2022-10-16T21:16:22.662Z,13.13
2022-10-16T21:18:49.547Z,13.80
2022-10-16T21:21:30.379Z,14.70
2022-10-16T21:23:58.159Z,13.93
2022-10-16T21:26:25.343Z,15.70
2022-10-16T21:29:03.819Z,18.70
2022-10-16T21:31:30.471Z,16.63
2022-10-16T21:33:57.010Z,15.13
2022-10-16T21:36:31.714Z,14.45
2022-10-16T21:39:03.444Z,17.35
2022-10-16T21:41:29.832Z,15.98
2022-10-16T21:43:57.423Z,13.90
2022-10-16T21:46:26.388Z,15.00
2022-10-16T21:48:53.622Z,14.98
2022-10-16T21:51:20.570Z,14.27
2022-10-16T21:53:46.878Z,14.05
2022-10-16T21:56:15.033Z,17.90
2022-10-16T21:58:41.829Z,12.10
2022-10-16T22:01:10.559Z,13.85
2022-10-16T22:03:36.959Z,15.80
2022-10-16T22:06:06.658Z,13.63
2022-10-16T22:08:34.323Z,13.57
2022-10-16T22:11:09.413Z,12.73
2022-10-16T22:13:36.593Z,12.95
2022-10-16T22:16:03.366Z,12.68
2022-10-16T22:18:30.064Z,12.70
2022-10-16T22:20:57.001Z,12.45
2022-10-16T22:23:23.658Z,14.38
2022-10-16T22:25:50.516Z,13.30
2022-10-16T22:28:17.732Z,13.02
2022-10-16T22:30:44.954Z,11.85
2022-10-16T22:33:11.751Z,11.18
2022-10-16T22:35:39.551Z,12.57
2022-10-16T22:38:06.520Z,12.52
2022-10-16T22:40:37.224Z,12.23
2022-10-16T22:43:04.625Z,10.65
2022-10-16T22:45:32.393Z,12.45
2022-10-16T22:47:59.101Z,13.23
2022-10-16T22:50:26.221Z,14.25
2022-10-16T22:52:53.116Z,14.30
2022-10-16T22:55:19.838Z,13.07
2022-10-16T22:57:46.194Z,13.98
2022-10-16T23:00:15.813Z,12.18
2022-10-16T23:02:42.440Z,14.85
2022-10-16T23:05:10.409Z,12.43
2022-10-16T23:07:38.064Z,15.52
2022-10-16T23:10:05.916Z,13.25
2022-10-16T23:12:32.240Z,12.25
2022-10-16T23:14:58.565Z,13.48
2022-10-16T23:17:24.903Z,13.88
2022-10-16T23:19:51.231Z,14.23
2022-10-16T23:22:17.574Z,13.38
2022-10-16T23:24:44.117Z,14.65
2022-10-16T23:27:10.465Z,12.48
2022-10-16T23:29:36.960Z,15.02
2022-10-16T23:32:03.357Z,15.40
2022-10-16T23:34:29.783Z,17.17
2022-10-16T23:36:56.161Z,18.38
2022-10-16T23:39:22.865Z,14.30
2022-10-16T23:41:49.179Z,15.43
2022-10-16T23:44:15.601Z,14.05
2022-10-16T23:46:41.983Z,16.77
2022-10-16T23:49:08.279Z,15.05
2022-10-16T23:51:34.578Z,15.73
2022-10-16T23:54:00.978Z,15.80
2022-10-16T23:56:27.295Z,14.60
2022-10-16T23:58:53.613Z,20.30
